sensor_id;sensor_type;location;lat;lon;timestamp;pressure;altitude;pressure_sealevel;temperature;humidity
27729;BME280;15126;42.186;24.340;2022-11-06T00:00:15;98990.28;;;12.39;80.37
27729;BME280;15126;42.186;24.340;2022-11-06T00:02:44;98983.44;;;12.40;80.16
27729;BME280;15126;42.186;24.340;2022-11-06T00:05:12;98970.81;;;12.35;80.09
27729;BME280;15126;42.186;24.340;2022-11-06T00:07:56;98973.38;;;12.42;79.93
27729;BME280;15126;42.186;24.340;2022-11-06T00:10:23;98977.06;;;12.39;80.10
27729;BME280;15126;42.186;24.340;2022-11-06T00:12:50;98992.94;;;12.42;79.88
27729;BME280;15126;42.186;24.340;2022-11-06T00:15:17;98985.06;;;12.28;80.38
27729;BME280;15126;42.186;24.340;2022-11-06T00:17:47;98966.84;;;12.11;80.85
27729;BME280;15126;42.186;24.340;2022-11-06T00:20:14;98987.28;;;12.21;81.16
27729;BME280;15126;42.186;24.340;2022-11-06T00:22:41;98985.47;;;12.27;79.80
27729;BME280;15126;42.186;24.340;2022-11-06T00:25:08;98999.69;;;12.32;79.71
27729;BME280;15126;42.186;24.340;2022-11-06T00:27:36;98982.25;;;12.28;80.04
27729;BME280;15126;42.186;24.340;2022-11-06T00:30:04;98976.09;;;12.33;79.61
27729;BME280;15126;42.186;24.340;2022-11-06T00:32:32;98986.38;;;12.36;80.03
27729;BME280;15126;42.186;24.340;2022-11-06T00:35:00;98957.91;;;12.04;80.99
27729;BME280;15126;42.186;24.340;2022-11-06T00:37:29;98984.59;;;12.30;80.65
27729;BME280;15126;42.186;24.340;2022-11-06T00:39:56;98986.59;;;12.29;80.54
27729;BME280;15126;42.186;24.340;2022-11-06T00:42:24;98981.03;;;12.17;81.52
27729;BME280;15126;42.186;24.340;2022-11-06T00:44:50;98973.44;;;12.17;81.62
27729;BME280;15126;42.186;24.340;2022-11-06T00:47:17;98986.38;;;12.24;80.34
27729;BME280;15126;42.186;24.340;2022-11-06T00:49:44;98976.09;;;12.21;81.13
27729;BME280;15126;42.186;24.340;2022-11-06T00:52:12;98986.53;;;11.95;83.09
27729;BME280;15126;42.186;24.340;2022-11-06T00:54:39;98996.69;;;12.02;82.97
27729;BME280;15126;42.186;24.340;2022-11-06T00:57:06;98997.38;;;12.06;81.97
27729;BME280;15126;42.186;24.340;2022-11-06T00:59:33;98996.38;;;12.00;82.54
27729;BME280;15126;42.186;24.340;2022-11-06T01:01:59;99005.97;;;11.86;82.22
27729;BME280;15126;42.186;24.340;2022-11-06T01:04:26;98993.13;;;11.88;82.05
27729;BME280;15126;42.186;24.340;2022-11-06T01:06:54;98987.31;;;11.96;81.23
27729;BME280;15126;42.186;24.340;2022-11-06T01:09:26;99001.28;;;11.96;80.82
27729;BME280;15126;42.186;24.340;2022-11-06T01:11:54;98988.66;;;11.91;81.15
27729;BME280;15126;42.186;24.340;2022-11-06T01:14:22;98991.34;;;11.94;80.61
27729;BME280;15126;42.186;24.340;2022-11-06T01:16:49;99001.72;;;11.94;80.78
27729;BME280;15126;42.186;24.340;2022-11-06T01:19:18;98989.75;;;11.93;80.55
27729;BME280;15126;42.186;24.340;2022-11-06T01:21:47;98984.97;;;11.94;80.74
27729;BME280;15126;42.186;24.340;2022-11-06T01:24:16;98985.31;;;11.83;80.94
27729;BME280;15126;42.186;24.340;2022-11-06T01:26:44;98998.81;;;11.85;81.39
27729;BME280;15126;42.186;24.340;2022-11-06T01:29:13;98994.81;;;11.86;81.07
27729;BME280;15126;42.186;24.340;2022-11-06T01:31:40;98993.91;;;11.89;80.32
27729;BME280;15126;42.186;24.340;2022-11-06T01:34:08;99002.50;;;11.69;82.04
27729;BME280;15126;42.186;24.340;2022-11-06T01:36:36;98998.25;;;11.77;81.68
27729;BME280;15126;42.186;24.340;2022-11-06T01:39:05;98976.88;;;11.58;82.45
27729;BME280;15126;42.186;24.340;2022-11-06T01:41:34;98982.84;;;11.73;81.69
27729;BME280;15126;42.186;24.340;2022-11-06T01:44:05;98988.53;;;11.69;82.04
27729;BME280;15126;42.186;24.340;2022-11-06T01:46:34;98994.81;;;11.73;81.54
27729;BME280;15126;42.186;24.340;2022-11-06T01:49:03;98979.25;;;11.72;81.41
27729;BME280;15126;42.186;24.340;2022-11-06T01:51:35;98980.16;;;11.69;81.96
27729;BME280;15126;42.186;24.340;2022-11-06T01:54:05;98977.69;;;11.71;82.07
27729;BME280;15126;42.186;24.340;2022-11-06T01:56:34;98955.41;;;11.55;81.83
27729;BME280;15126;42.186;24.340;2022-11-06T01:59:04;98977.69;;;11.71;82.26
27729;BME280;15126;42.186;24.340;2022-11-06T02:01:32;98986.06;;;11.71;82.19
27729;BME280;15126;42.186;24.340;2022-11-06T02:04:03;98973.34;;;11.70;82.34
27729;BME280;15126;42.186;24.340;2022-11-06T02:06:31;98979.56;;;11.62;83.00
27729;BME280;15126;42.186;24.340;2022-11-06T02:08:58;98979.66;;;11.58;83.48
27729;BME280;15126;42.186;24.340;2022-11-06T02:11:25;98982.81;;;11.60;82.95
27729;BME280;15126;42.186;24.340;2022-11-06T02:14:00;98979.09;;;11.63;82.52
27729;BME280;15126;42.186;24.340;2022-11-06T02:16:37;98981.56;;;11.61;83.11
27729;BME280;15126;42.186;24.340;2022-11-06T02:19:23;98974.09;;;11.58;82.78
27729;BME280;15126;42.186;24.340;2022-11-06T02:22:19;98970.50;;;11.45;84.65
27729;BME280;15126;42.186;24.340;2022-11-06T02:25:11;98982.00;;;11.47;84.55
27729;BME280;15126;42.186;24.340;2022-11-06T02:27:43;98985.91;;;11.50;84.14
27729;BME280;15126;42.186;24.340;2022-11-06T02:30:13;98985.56;;;11.48;84.56
27729;BME280;15126;42.186;24.340;2022-11-06T02:32:44;98986.28;;;11.52;84.17
27729;BME280;15126;42.186;24.340;2022-11-06T02:35:19;98970.72;;;11.38;84.08
27729;BME280;15126;42.186;24.340;2022-11-06T02:37:50;98979.00;;;11.54;83.90
27729;BME280;15126;42.186;24.340;2022-11-06T02:40:20;98979.78;;;11.55;83.82
27729;BME280;15126;42.186;24.340;2022-11-06T02:42:52;98999.00;;;11.53;84.00
27729;BME280;15126;42.186;24.340;2022-11-06T02:45:21;98994.19;;;11.53;83.95
27729;BME280;15126;42.186;24.340;2022-11-06T02:47:51;98992.97;;;11.54;83.31
27729;BME280;15126;42.186;24.340;2022-11-06T02:50:22;98990.50;;;11.56;83.22
27729;BME280;15126;42.186;24.340;2022-11-06T02:52:53;98984.94;;;11.56;82.85
27729;BME280;15126;42.186;24.340;2022-11-06T02:55:26;98989.50;;;11.50;83.04
27729;BME280;15126;42.186;24.340;2022-11-06T02:58:00;98989.50;;;11.50;83.41
27729;BME280;15126;42.186;24.340;2022-11-06T03:00:30;98985.91;;;11.50;83.50
27729;BME280;15126;42.186;24.340;2022-11-06T03:03:00;98982.00;;;11.47;83.67
27729;BME280;15126;42.186;24.340;2022-11-06T03:05:32;98983.66;;;11.45;83.97
27729;BME280;15126;42.186;24.340;2022-11-06T03:08:05;98980.56;;;11.43;84.19
27729;BME280;15126;42.186;24.340;2022-11-06T03:10:39;98981.41;;;11.27;85.20
27729;BME280;15126;42.186;24.340;2022-11-06T03:13:14;98980.19;;;11.28;85.20
27729;BME280;15126;42.186;24.340;2022-11-06T03:15:46;98977.38;;;11.28;84.32
27729;BME280;15126;42.186;24.340;2022-11-06T03:18:17;98987.78;;;11.27;84.38
27729;BME280;15126;42.186;24.340;2022-11-06T03:20:55;98990.34;;;11.22;84.49
27729;BME280;15126;42.186;24.340;2022-11-06T03:23:30;98994.34;;;11.21;84.61
27729;BME280;15126;42.186;24.340;2022-11-06T03:26:07;98998.09;;;11.02;86.00
27729;BME280;15126;42.186;24.340;2022-11-06T03:28:39;98997.88;;;11.09;84.90
27729;BME280;15126;42.186;24.340;2022-11-06T03:31:10;98993.53;;;11.08;84.87
27729;BME280;15126;42.186;24.340;2022-11-06T03:33:43;98992.66;;;11.11;84.73
27729;BME280;15126;42.186;24.340;2022-11-06T03:36:14;98993.44;;;11.11;84.53
27729;BME280;15126;42.186;24.340;2022-11-06T03:38:45;98994.56;;;11.14;84.79
27729;BME280;15126;42.186;24.340;2022-11-06T03:41:19;98993.97;;;11.06;85.46
27729;BME280;15126;42.186;24.340;2022-11-06T03:43:51;98992.19;;;11.12;85.21
27729;BME280;15126;42.186;24.340;2022-11-06T03:46:21;98994.13;;;11.15;85.16
27729;BME280;15126;42.186;24.340;2022-11-06T03:48:54;98995.31;;;11.14;84.77
27729;BME280;15126;42.186;24.340;2022-11-06T03:51:26;98984.06;;;11.18;84.68
27729;BME280;15126;42.186;24.340;2022-11-06T03:53:58;98987.31;;;11.16;84.72
27729;BME280;15126;42.186;24.340;2022-11-06T03:56:31;98984.94;;;11.15;84.53
27729;BME280;15126;42.186;24.340;2022-11-06T03:59:06;98978.16;;;11.16;84.88
27729;BME280;15126;42.186;24.340;2022-11-06T04:01:36;98972.56;;;11.16;84.42
27729;BME280;15126;42.186;24.340;2022-11-06T04:04:06;98974.66;;;11.12;85.19
27729;BME280;15126;42.186;24.340;2022-11-06T04:06:39;98984.16;;;11.14;85.08
27729;BME280;15126;42.186;24.340;2022-11-06T04:09:09;98978.78;;;11.07;85.56
27729;BME280;15126;42.186;24.340;2022-11-06T04:12:11;98989.88;;;11.11;85.01
27729;BME280;15126;42.186;24.340;2022-11-06T04:14:59;98985.84;;;11.12;84.73
27729;BME280;15126;42.186;24.340;2022-11-06T04:17:27;98991.41;;;11.12;84.75
27729;BME280;15126;42.186;24.340;2022-11-06T04:19:57;98998.66;;;11.09;84.82
27729;BME280;15126;42.186;24.340;2022-11-06T04:22:33;99008.47;;;11.01;86.82
27729;BME280;15126;42.186;24.340;2022-11-06T04:25:17;99000.34;;;11.07;86.27
27729;BME280;15126;42.186;24.340;2022-11-06T04:28:11;98997.66;;;11.03;86.10
27729;BME280;15126;42.186;24.340;2022-11-06T04:30:50;98998.91;;;11.15;86.04
27729;BME280;15126;42.186;24.340;2022-11-06T04:33:25;98998.81;;;11.18;85.68
27729;BME280;15126;42.186;24.340;2022-11-06T04:36:00;98997.78;;;11.12;86.23
27729;BME280;15126;42.186;24.340;2022-11-06T04:38:38;99000.38;;;11.19;86.14
27729;BME280;15126;42.186;24.340;2022-11-06T04:41:13;99000.63;;;11.25;86.14
27729;BME280;15126;42.186;24.340;2022-11-06T04:43:48;99007.66;;;11.17;86.77
27729;BME280;15126;42.186;24.340;2022-11-06T04:46:21;99011.09;;;11.21;87.33
27729;BME280;15126;42.186;24.340;2022-11-06T04:48:50;98976.78;;;11.08;86.47
27729;BME280;15126;42.186;24.340;2022-11-06T04:51:20;99010.47;;;11.29;86.48
27729;BME280;15126;42.186;24.340;2022-11-06T04:53:49;99006.31;;;11.34;86.73
27729;BME280;15126;42.186;24.340;2022-11-06T04:56:21;98988.34;;;11.35;86.12
27729;BME280;15126;42.186;24.340;2022-11-06T04:58:48;98990.25;;;11.38;85.97
27729;BME280;15126;42.186;24.340;2022-11-06T05:01:15;98995.84;;;11.38;86.18
27729;BME280;15126;42.186;24.340;2022-11-06T05:03:43;99008.22;;;11.37;86.59
27729;BME280;15126;42.186;24.340;2022-11-06T05:06:10;98994.97;;;11.41;85.86
27729;BME280;15126;42.186;24.340;2022-11-06T05:08:37;99001.66;;;11.44;85.65
27729;BME280;15126;42.186;24.340;2022-11-06T05:11:04;98993.72;;;11.42;86.23
27729;BME280;15126;42.186;24.340;2022-11-06T05:13:31;99001.13;;;11.49;85.80
27729;BME280;15126;42.186;24.340;2022-11-06T05:15:58;98999.88;;;11.50;85.24
27729;BME280;15126;42.186;24.340;2022-11-06T05:18:26;99011.50;;;11.48;85.43
27729;BME280;15126;42.186;24.340;2022-11-06T05:20:58;99009.91;;;11.47;85.98
27729;BME280;15126;42.186;24.340;2022-11-06T05:23:43;99014.28;;;11.48;85.83
27729;BME280;15126;42.186;24.340;2022-11-06T05:26:10;99014.97;;;11.52;85.46
27729;BME280;15126;42.186;24.340;2022-11-06T05:28:36;99025.25;;;11.55;85.55
27729;BME280;15126;42.186;24.340;2022-11-06T05:31:04;99022.81;;;11.57;85.44
27729;BME280;15126;42.186;24.340;2022-11-06T05:33:30;99037.75;;;11.63;86.12
27729;BME280;15126;42.186;24.340;2022-11-06T05:36:02;99042.47;;;11.66;85.78
27729;BME280;15126;42.186;24.340;2022-11-06T05:38:29;99030.06;;;11.67;85.81
27729;BME280;15126;42.186;24.340;2022-11-06T05:40:56;99014.47;;;11.70;85.56
27729;BME280;15126;42.186;24.340;2022-11-06T05:43:23;99028.06;;;11.68;85.99
27729;BME280;15126;42.186;24.340;2022-11-06T05:45:50;99036.34;;;11.71;86.36
27729;BME280;15126;42.186;24.340;2022-11-06T05:48:17;99047.09;;;11.73;86.45
27729;BME280;15126;42.186;24.340;2022-11-06T05:50:43;99053.00;;;11.75;86.30
27729;BME280;15126;42.186;24.340;2022-11-06T05:53:11;99056.50;;;11.79;86.46
27729;BME280;15126;42.186;24.340;2022-11-06T05:55:38;99056.03;;;11.80;86.50
27729;BME280;15126;42.186;24.340;2022-11-06T05:58:05;99061.19;;;11.82;86.08
27729;BME280;15126;42.186;24.340;2022-11-06T06:00:32;99070.56;;;11.75;86.23
27729;BME280;15126;42.186;24.340;2022-11-06T06:03:00;99063.84;;;11.73;86.03
27729;BME280;15126;42.186;24.340;2022-11-06T06:05:27;99068.78;;;11.81;85.10
27729;BME280;15126;42.186;24.340;2022-11-06T06:07:53;99068.88;;;11.78;85.51
27729;BME280;15126;42.186;24.340;2022-11-06T06:10:22;99061.97;;;11.82;85.25
27729;BME280;15126;42.186;24.340;2022-11-06T06:12:48;99064.66;;;11.45;85.70
27729;BME280;15126;42.186;24.340;2022-11-06T06:15:15;99086.69;;;11.55;85.96
27729;BME280;15126;42.186;24.340;2022-11-06T06:17:42;99092.06;;;11.62;85.66
27729;BME280;15126;42.186;24.340;2022-11-06T06:20:11;99095.81;;;11.72;85.39
27729;BME280;15126;42.186;24.340;2022-11-06T06:22:38;99106.31;;;11.80;84.44
27729;BME280;15126;42.186;24.340;2022-11-06T06:25:05;99090.81;;;11.79;84.25
27729;BME280;15126;42.186;24.340;2022-11-06T06:27:37;99097.41;;;11.85;84.66
27729;BME280;15126;42.186;24.340;2022-11-06T06:30:04;99113.09;;;11.96;83.95
27729;BME280;15126;42.186;24.340;2022-11-06T06:32:32;99094.72;;;11.82;83.89
27729;BME280;15126;42.186;24.340;2022-11-06T06:34:58;99092.25;;;11.84;84.17
27729;BME280;15126;42.186;24.340;2022-11-06T06:37:25;99122.59;;;11.98;84.36
27729;BME280;15126;42.186;24.340;2022-11-06T06:39:52;99129.72;;;11.86;84.47
27729;BME280;15126;42.186;24.340;2022-11-06T06:42:19;99136.28;;;11.80;84.82
27729;BME280;15126;42.186;24.340;2022-11-06T06:44:47;99134.72;;;11.79;85.53
27729;BME280;15126;42.186;24.340;2022-11-06T06:47:14;99148.63;;;11.95;84.76
27729;BME280;15126;42.186;24.340;2022-11-06T06:49:42;99127.34;;;11.85;85.63
27729;BME280;15126;42.186;24.340;2022-11-06T06:52:09;99130.28;;;12.07;84.94
27729;BME280;15126;42.186;24.340;2022-11-06T06:54:36;99126.38;;;12.04;85.90
27729;BME280;15126;42.186;24.340;2022-11-06T06:57:06;99126.59;;;12.10;86.37
27729;BME280;15126;42.186;24.340;2022-11-06T06:59:33;99124.03;;;12.15;86.32
27729;BME280;15126;42.186;24.340;2022-11-06T07:02:01;99147.09;;;12.19;87.39
27729;BME280;15126;42.186;24.340;2022-11-06T07:04:29;99146.06;;;12.26;87.45
27729;BME280;15126;42.186;24.340;2022-11-06T07:06:56;99144.75;;;12.30;88.58
27729;BME280;15126;42.186;24.340;2022-11-06T07:09:23;99150.56;;;12.36;88.82
27729;BME280;15126;42.186;24.340;2022-11-06T07:11:50;99157.16;;;12.42;88.97
27729;BME280;15126;42.186;24.340;2022-11-06T07:14:16;99156.50;;;12.50;88.59
27729;BME280;15126;42.186;24.340;2022-11-06T07:16:43;99157.06;;;12.58;87.97
27729;BME280;15126;42.186;24.340;2022-11-06T07:19:11;99167.34;;;12.61;88.62
27729;BME280;15126;42.186;24.340;2022-11-06T07:21:38;99173.50;;;12.56;89.58
27729;BME280;15126;42.186;24.340;2022-11-06T07:24:05;99165.69;;;12.64;88.84
27729;BME280;15126;42.186;24.340;2022-11-06T07:26:32;99156.84;;;12.65;89.03
27729;BME280;15126;42.186;24.340;2022-11-06T07:28:59;99146.19;;;12.73;87.96
27729;BME280;15126;42.186;24.340;2022-11-06T07:31:25;99139.16;;;12.68;87.59
27729;BME280;15126;42.186;24.340;2022-11-06T07:33:52;99156.50;;;12.76;87.71
27729;BME280;15126;42.186;24.340;2022-11-06T07:36:20;99171.59;;;12.78;88.12
27729;BME280;15126;42.186;24.340;2022-11-06T07:38:47;99170.38;;;12.79;88.98
27729;BME280;15126;42.186;24.340;2022-11-06T07:41:14;99167.59;;;12.79;89.76
27729;BME280;15126;42.186;24.340;2022-11-06T07:43:42;99163.75;;;12.86;89.36
27729;BME280;15126;42.186;24.340;2022-11-06T07:46:11;99174.50;;;12.87;89.65
27729;BME280;15126;42.186;24.340;2022-11-06T07:48:38;99183.03;;;12.71;89.55
27729;BME280;15126;42.186;24.340;2022-11-06T07:51:07;99179.44;;;12.83;89.46
27729;BME280;15126;42.186;24.340;2022-11-06T07:53:36;99195.22;;;12.90;89.87
27729;BME280;15126;42.186;24.340;2022-11-06T07:56:03;99191.94;;;12.91;89.58
27729;BME280;15126;42.186;24.340;2022-11-06T07:58:30;99206.63;;;12.95;88.72
27729;BME280;15126;42.186;24.340;2022-11-06T08:00:58;99220.19;;;12.72;89.75
27729;BME280;15126;42.186;24.340;2022-11-06T08:03:25;99221.03;;;12.31;91.49
27729;BME280;15126;42.186;24.340;2022-11-06T08:05:54;99233.81;;;12.44;91.63
27729;BME280;15126;42.186;24.340;2022-11-06T08:08:21;99240.06;;;12.48;91.61
27729;BME280;15126;42.186;24.340;2022-11-06T08:10:49;99234.72;;;12.54;90.52
27729;BME280;15126;42.186;24.340;2022-11-06T08:13:18;99196.44;;;12.51;90.68
27729;BME280;15126;42.186;24.340;2022-11-06T08:15:45;99200.81;;;12.65;91.34
27729;BME280;15126;42.186;24.340;2022-11-06T08:18:12;99210.31;;;12.67;91.27
27729;BME280;15126;42.186;24.340;2022-11-06T08:20:39;99205.06;;;12.69;91.80
27729;BME280;15126;42.186;24.340;2022-11-06T08:23:09;99205.97;;;12.66;92.50
27729;BME280;15126;42.186;24.340;2022-11-06T08:25:37;99212.56;;;12.72;92.31
27729;BME280;15126;42.186;24.340;2022-11-06T08:28:05;99202.72;;;12.80;91.93
27729;BME280;15126;42.186;24.340;2022-11-06T08:30:32;99200.25;;;12.82;92.48
27729;BME280;15126;42.186;24.340;2022-11-06T08:32:59;99208.19;;;12.84;92.84
27729;BME280;15126;42.186;24.340;2022-11-06T08:35:27;99198.59;;;12.85;92.87
27729;BME280;15126;42.186;24.340;2022-11-06T08:37:54;99211.13;;;12.93;93.09
27729;BME280;15126;42.186;24.340;2022-11-06T08:40:21;99221.53;;;12.92;93.04
27729;BME280;15126;42.186;24.340;2022-11-06T08:42:48;99229.91;;;12.92;93.53
27729;BME280;15126;42.186;24.340;2022-11-06T08:45:16;99213.38;;;12.85;93.82
27729;BME280;15126;42.186;24.340;2022-11-06T08:47:43;99220.97;;;12.97;93.29
27729;BME280;15126;42.186;24.340;2022-11-06T08:50:10;99223.44;;;12.95;93.89
27729;BME280;15126;42.186;24.340;2022-11-06T08:52:37;99228.25;;;12.95;94.28
27729;BME280;15126;42.186;24.340;2022-11-06T08:55:04;99243.69;;;12.99;94.23
27729;BME280;15126;42.186;24.340;2022-11-06T08:57:31;99228.25;;;13.07;94.29
27729;BME280;15126;42.186;24.340;2022-11-06T08:59:58;99232.94;;;13.10;93.85
27729;BME280;15126;42.186;24.340;2022-11-06T09:02:26;99229.72;;;13.12;94.24
27729;BME280;15126;42.186;24.340;2022-11-06T09:04:52;99232.75;;;13.18;94.36
27729;BME280;15126;42.186;24.340;2022-11-06T09:07:19;99228.94;;;13.11;94.67
27729;BME280;15126;42.186;24.340;2022-11-06T09:09:46;99238.91;;;13.13;94.81
27729;BME280;15126;42.186;24.340;2022-11-06T09:12:13;99246.06;;;13.13;94.16
27729;BME280;15126;42.186;24.340;2022-11-06T09:14:40;99247.06;;;13.20;93.97
27729;BME280;15126;42.186;24.340;2022-11-06T09:17:07;99243.03;;;13.21;94.08
27729;BME280;15126;42.186;24.340;2022-11-06T09:19:35;99248.84;;;13.26;94.16
27729;BME280;15126;42.186;24.340;2022-11-06T09:22:04;99254.91;;;13.25;93.79
27729;BME280;15126;42.186;24.340;2022-11-06T09:24:32;99266.78;;;13.29;93.36
27729;BME280;15126;42.186;24.340;2022-11-06T09:26:59;99248.63;;;13.21;93.23
27729;BME280;15126;42.186;24.340;2022-11-06T09:29:26;99261.81;;;13.33;92.24
27729;BME280;15126;42.186;24.340;2022-11-06T09:31:53;99269.00;;;13.34;92.38
27729;BME280;15126;42.186;24.340;2022-11-06T09:34:20;99269.66;;;13.38;92.37
27729;BME280;15126;42.186;24.340;2022-11-06T09:36:48;99259.50;;;13.31;92.77
27729;BME280;15126;42.186;24.340;2022-11-06T09:39:15;99259.47;;;13.44;93.42
27729;BME280;15126;42.186;24.340;2022-11-06T09:41:48;99234.28;;;13.19;94.18
27729;BME280;15126;42.186;24.340;2022-11-06T09:44:36;99237.50;;;13.42;93.93
27729;BME280;15126;42.186;24.340;2022-11-06T09:47:14;99246.94;;;13.36;96.21
27729;BME280;15126;42.186;24.340;2022-11-06T09:49:46;99238.16;;;13.46;95.74
27729;BME280;15126;42.186;24.340;2022-11-06T09:52:20;99224.84;;;13.38;95.97
27729;BME280;15126;42.186;24.340;2022-11-06T09:54:51;99234.63;;;13.21;97.64
27729;BME280;15126;42.186;24.340;2022-11-06T09:57:23;99250.50;;;13.24;98.02
27729;BME280;15126;42.186;24.340;2022-11-06T09:59:54;99247.59;;;13.27;97.64
27729;BME280;15126;42.186;24.340;2022-11-06T10:02:27;99248.72;;;13.42;97.31
27729;BME280;15126;42.186;24.340;2022-11-06T10:05:01;99249.25;;;13.50;97.35
27729;BME280;15126;42.186;24.340;2022-11-06T10:07:33;99225.09;;;13.31;98.18
27729;BME280;15126;42.186;24.340;2022-11-06T10:10:02;99213.72;;;13.47;97.91
27729;BME280;15126;42.186;24.340;2022-11-06T10:12:36;99220.06;;;13.60;97.71
27729;BME280;15126;42.186;24.340;2022-11-06T10:15:16;99232.03;;;13.73;97.74
27729;BME280;15126;42.186;24.340;2022-11-06T10:17:50;99225.84;;;13.78;97.51
27729;BME280;15126;42.186;24.340;2022-11-06T10:20:25;99220.91;;;13.82;97.65
27729;BME280;15126;42.186;24.340;2022-11-06T10:23:03;99219.09;;;13.88;97.69
27729;BME280;15126;42.186;24.340;2022-11-06T10:25:42;99215.50;;;13.88;97.38
27729;BME280;15126;42.186;24.340;2022-11-06T10:28:17;99217.00;;;14.01;96.08
27729;BME280;15126;42.186;24.340;2022-11-06T10:30:53;99184.78;;;13.84;95.67
27729;BME280;15126;42.186;24.340;2022-11-06T10:33:33;99220.63;;;14.11;94.90
27729;BME280;15126;42.186;24.340;2022-11-06T10:36:05;99231.66;;;14.05;95.44
27729;BME280;15126;42.186;24.340;2022-11-06T10:38:37;99220.78;;;13.86;96.13
27729;BME280;15126;42.186;24.340;2022-11-06T10:41:14;99230.16;;;13.92;96.05
27729;BME280;15126;42.186;24.340;2022-11-06T10:43:47;99230.69;;;13.99;95.51
27729;BME280;15126;42.186;24.340;2022-11-06T10:46:19;99224.81;;;14.06;95.63
27729;BME280;15126;42.186;24.340;2022-11-06T10:48:52;99226.44;;;14.16;95.13
27729;BME280;15126;42.186;24.340;2022-11-06T10:51:30;99206.81;;;13.95;95.94
27729;BME280;15126;42.186;24.340;2022-11-06T10:54:12;99221.31;;;14.15;95.88
27729;BME280;15126;42.186;24.340;2022-11-06T10:56:52;99228.09;;;14.26;95.11
27729;BME280;15126;42.186;24.340;2022-11-06T10:59:24;99222.09;;;14.15;95.92
27729;BME280;15126;42.186;24.340;2022-11-06T11:01:50;99221.50;;;14.20;95.68
27729;BME280;15126;42.186;24.340;2022-11-06T11:04:17;99220.78;;;14.29;95.03
27729;BME280;15126;42.186;24.340;2022-11-06T11:06:44;99218.19;;;14.13;95.43
27729;BME280;15126;42.186;24.340;2022-11-06T11:09:27;99209.22;;;14.27;95.02
27729;BME280;15126;42.186;24.340;2022-11-06T11:11:54;99212.00;;;14.27;94.74
27729;BME280;15126;42.186;24.340;2022-11-06T11:14:23;99215.47;;;14.31;94.85
27729;BME280;15126;42.186;24.340;2022-11-06T11:16:50;99214.38;;;14.28;95.46
27729;BME280;15126;42.186;24.340;2022-11-06T11:19:32;99210.31;;;14.29;95.34
27729;BME280;15126;42.186;24.340;2022-11-06T11:22:01;99202.19;;;14.22;96.65
27729;BME280;15126;42.186;24.340;2022-11-06T11:24:30;99201.06;;;14.20;96.52
27729;BME280;15126;42.186;24.340;2022-11-06T11:26:59;99194.41;;;14.26;96.46
27729;BME280;15126;42.186;24.340;2022-11-06T11:29:29;99184.56;;;14.22;96.54
27729;BME280;15126;42.186;24.340;2022-11-06T11:31:58;99189.94;;;14.07;98.33
27729;BME280;15126;42.186;24.340;2022-11-06T11:34:29;99190.63;;;14.20;97.93
27729;BME280;15126;42.186;24.340;2022-11-06T11:36:58;99186.88;;;13.93;99.87
27729;BME280;15126;42.186;24.340;2022-11-06T11:39:31;99188.03;;;14.04;99.07
27729;BME280;15126;42.186;24.340;2022-11-06T11:42:22;99186.75;;;14.27;98.50
27729;BME280;15126;42.186;24.340;2022-11-06T11:45:10;99182.94;;;14.34;99.23
27729;BME280;15126;42.186;24.340;2022-11-06T11:47:39;99179.28;;;14.24;99.74
27729;BME280;15126;42.186;24.340;2022-11-06T11:50:18;99156.28;;;14.07;99.37
27729;BME280;15126;42.186;24.340;2022-11-06T11:52:47;99175.50;;;14.40;98.11
27729;BME280;15126;42.186;24.340;2022-11-06T11:55:18;99179.97;;;14.59;97.83
27729;BME280;15126;42.186;24.340;2022-11-06T11:57:48;99174.53;;;14.64;97.74
27729;BME280;15126;42.186;24.340;2022-11-06T12:00:17;99184.22;;;14.72;97.88
27729;BME280;15126;42.186;24.340;2022-11-06T12:02:46;99175.66;;;14.76;97.22
27729;BME280;15126;42.186;24.340;2022-11-06T12:05:17;99177.34;;;14.73;97.41
27729;BME280;15126;42.186;24.340;2022-11-06T12:07:49;99180.34;;;14.79;97.06
27729;BME280;15126;42.186;24.340;2022-11-06T12:10:39;99181.34;;;14.94;95.94
27729;BME280;15126;42.186;24.340;2022-11-06T12:13:25;99193.06;;;15.02;95.58
27729;BME280;15126;42.186;24.340;2022-11-06T12:15:54;99191.81;;;15.03;95.87
27729;BME280;15126;42.186;24.340;2022-11-06T12:18:26;99192.63;;;15.12;95.18
27729;BME280;15126;42.186;24.340;2022-11-06T12:20:57;99196.34;;;15.09;94.63
27729;BME280;15126;42.186;24.340;2022-11-06T12:23:29;99203.88;;;15.21;94.69
27729;BME280;15126;42.186;24.340;2022-11-06T12:26:04;99200.28;;;15.21;95.43
27729;BME280;15126;42.186;24.340;2022-11-06T12:28:34;99193.41;;;15.13;95.39
27729;BME280;15126;42.186;24.340;2022-11-06T12:31:29;99186.25;;;15.21;95.08
27729;BME280;15126;42.186;24.340;2022-11-06T12:34:16;99194.22;;;15.31;94.40
27729;BME280;15126;42.186;24.340;2022-11-06T12:37:03;99188.56;;;15.22;94.68
27729;BME280;15126;42.186;24.340;2022-11-06T12:39:36;99189.66;;;15.25;94.76
27729;BME280;15126;42.186;24.340;2022-11-06T12:42:10;99189.06;;;15.21;95.75
27729;BME280;15126;42.186;24.340;2022-11-06T12:44:37;99193.28;;;15.34;95.26
27729;BME280;15126;42.186;24.340;2022-11-06T12:47:07;99165.03;;;15.29;94.27
27729;BME280;15126;42.186;24.340;2022-11-06T12:49:59;99189.06;;;15.39;93.65
27729;BME280;15126;42.186;24.340;2022-11-06T12:52:43;99187.34;;;15.41;93.59
27729;BME280;15126;42.186;24.340;2022-11-06T12:55:19;99180.56;;;15.52;93.58
27729;BME280;15126;42.186;24.340;2022-11-06T12:58:21;99178.84;;;15.54;92.84
27729;BME280;15126;42.186;24.340;2022-11-06T13:00:58;99176.94;;;15.60;93.14
27729;BME280;15126;42.186;24.340;2022-11-06T13:04:02;99178.34;;;15.46;94.36
27729;BME280;15126;42.186;24.340;2022-11-06T13:06:57;99188.56;;;15.22;95.05
27729;BME280;15126;42.186;24.340;2022-11-06T13:09:32;99177.03;;;15.38;93.83